Time;durP1;ratioP1;P1;durP2;ratioP2;P2;SDS_P1;SDS_P2;PMS_P1;PMS_P2;Temp;Humidity;BMP_temperature;BMP_pressure;BME280_temperature;BME280_humidity;BME280_pressure;Samples;Min_cycle;Max_cycle;Signal;HPM_P1;HPM_P2
2021/10/30 00:00:07;;;;;;;46.35;23.73;;;;;;;4.02;100.00;98257.00;5064575;28;20490;-89
2021/10/30 00:02:32;;;;;;;59.05;28.58;;;;;;;4.09;100.00;98264.72;5070476;28;20123;-89
2021/10/30 00:04:58;;;;;;;55.80;26.30;;;;;;;4.10;100.00;98273.53;5058375;28;20048;-88
2021/10/30 00:07:23;;;;;;;52.83;26.35;;;;;;;4.02;100.00;98263.16;5070014;28;20051;-89
2021/10/30 00:09:49;;;;;;;51.67;26.00;;;;;;;4.01;100.00;98271.13;5068935;28;20047;-90
2021/10/30 00:12:15;;;;;;;51.55;25.55;;;;;;;3.92;100.00;98268.69;5075966;28;20051;-89
2021/10/30 00:14:43;;;;;;;58.90;28.13;;;;;;;3.99;100.00;98272.94;5072539;28;20031;-94
2021/10/30 00:17:10;;;;;;;51.28;26.75;;;;;;;4.10;100.00;98282.34;5072167;28;20111;-90
2021/10/30 00:19:35;;;;;;;53.80;27.90;;;;;;;4.04;100.00;98276.34;5061623;28;20101;-89
2021/10/30 00:22:02;;;;;;;61.00;28.15;;;;;;;3.95;100.00;98273.91;5060886;28;20138;-88
2021/10/30 00:24:31;;;;;;;58.58;26.75;;;;;;;3.82;100.00;98260.97;5079010;28;20023;-90
2021/10/30 00:26:59;;;;;;;52.53;29.00;;;;;;;3.82;100.00;98279.50;5063292;28;20059;-90
2021/10/30 00:29:25;;;;;;;77.07;36.70;;;;;;;3.68;100.00;98256.94;5062899;28;20028;-89
2021/10/30 00:31:51;;;;;;;67.30;33.78;;;;;;;3.81;100.00;98274.25;5060161;28;20506;-89
2021/10/30 00:34:16;;;;;;;69.93;34.22;;;;;;;3.69;100.00;98263.97;5066510;28;20028;-89
2021/10/30 00:36:42;;;;;;;71.88;34.47;;;;;;;3.69;100.00;98264.81;5060391;28;20071;-88
2021/10/30 00:39:08;;;;;;;63.80;31.80;;;;;;;3.64;100.00;98255.25;5066289;28;20059;-89
2021/10/30 00:41:33;;;;;;;53.90;27.55;;;;;;;3.58;100.00;98255.38;5063778;28;20055;-88
2021/10/30 00:44:11;;;;;;;52.00;27.88;;;;;;;3.43;100.00;98245.16;5067655;28;20119;-88
2021/10/30 00:46:44;;;;;;;52.40;26.35;;;;;;;3.51;100.00;98265.22;5076568;28;20384;-88
2021/10/30 00:49:11;;;;;;;48.90;25.23;;;;;;;3.45;100.00;98251.28;5075191;28;20487;-88
2021/10/30 00:51:38;;;;;;;51.67;24.35;;;;;;;3.41;100.00;98245.22;5075856;28;20035;-89
2021/10/30 00:54:05;;;;;;;54.08;25.08;;;;;;;3.50;100.00;98263.50;5075630;28;20024;-89
2021/10/30 00:56:31;;;;;;;53.33;25.50;;;;;;;3.53;100.00;98265.22;5075321;28;20028;-88
2021/10/30 00:59:05;;;;;;;54.22;26.75;;;;;;;3.52;100.00;98261.69;5075466;28;20556;-88
2021/10/30 01:01:31;;;;;;;55.88;26.80;;;;;;;3.46;100.00;98261.84;5075666;28;20032;-89
2021/10/30 01:03:58;;;;;;;57.78;25.65;;;;;;;3.46;100.00;98263.59;5072781;28;20032;-90
2021/10/30 01:06:24;;;;;;;48.72;25.35;;;;;;;3.23;100.00;98253.56;5076067;28;20028;-89
2021/10/30 01:08:49;;;;;;;52.42;25.17;;;;;;;3.24;100.00;98260.56;5076820;28;20035;-88
2021/10/30 01:11:16;;;;;;;59.78;25.00;;;;;;;3.22;100.00;98243.88;5075543;28;20028;-87
2021/10/30 01:13:42;;;;;;;52.20;25.55;;;;;;;3.21;100.00;98242.13;5075225;28;20024;-88
2021/10/30 01:16:09;;;;;;;50.88;23.95;;;;;;;3.27;100.00;98257.84;5072409;28;20125;-89
2021/10/30 01:18:35;;;;;;;51.72;22.60;;;;;;;3.16;100.00;98246.66;5068987;28;20032;-89
2021/10/30 01:21:01;;;;;;;43.88;22.42;;;;;;;3.27;100.00;98256.06;5077297;28;20491;-90
2021/10/30 01:23:27;;;;;;;42.90;22.42;;;;;;;3.30;100.00;98255.13;5075582;28;20024;-89
2021/10/30 01:25:58;;;;;;;40.10;22.42;;;;;;;3.18;100.00;98244.84;5076174;28;20112;-89
2021/10/30 01:28:25;;;;;;;41.15;20.63;;;;;;;3.18;100.00;98244.84;5080057;28;20040;-89
2021/10/30 01:30:50;;;;;;;40.17;21.05;;;;;;;3.16;100.00;98250.16;5080515;28;20027;-90
2021/10/30 01:33:16;;;;;;;38.22;20.58;;;;;;;3.13;100.00;98252.00;5080241;28;20028;-89
2021/10/30 01:35:42;;;;;;;35.33;18.95;;;;;;;3.03;100.00;98231.94;5080695;28;20032;-90
2021/10/30 01:38:09;;;;;;;37.08;19.30;;;;;;;3.05;100.00;98248.63;5081536;28;20040;-91
2021/10/30 01:40:43;;;;;;;36.17;18.83;;;;;;;3.04;100.00;98252.19;5080457;28;20020;-90
2021/10/30 01:43:10;;;;;;;42.00;19.48;;;;;;;2.97;100.00;98229.44;5081115;28;20028;-88
2021/10/30 01:45:35;;;;;;;45.72;24.85;;;;;;;2.86;100.00;98227.00;5082246;28;20042;-90
2021/10/30 01:48:01;;;;;;;39.92;21.75;;;;;;;2.96;100.00;98257.63;5083426;28;20031;-90
2021/10/30 01:50:28;;;;;;;42.28;21.60;;;;;;;3.03;100.00;98253.09;5082014;28;20031;-89
2021/10/30 01:52:58;;;;;;;51.75;26.15;;;;;;;2.97;100.00;98246.16;5084045;28;20046;-90
2021/10/30 01:55:23;;;;;;;65.88;31.27;;;;;;;3.04;100.00;98246.91;5083662;28;20028;-90
2021/10/30 01:57:49;;;;;;;49.05;23.30;;;;;;;3.04;100.00;98242.50;5083274;28;20042;-90
2021/10/30 02:00:16;;;;;;;49.60;23.85;;;;;;;2.98;100.00;98242.63;5083073;28;20023;-89
2021/10/30 02:02:42;;;;;;;56.58;25.98;;;;;;;3.07;100.00;98239.78;5082459;28;20030;-89
2021/10/30 02:05:09;;;;;;;54.03;24.83;;;;;;;3.11;100.00;98240.56;5084109;28;20015;-89
2021/10/30 02:07:35;;;;;;;46.58;24.67;;;;;;;3.14;100.00;98246.66;5099614;28;20023;-89
2021/10/30 02:10:00;;;;;;;48.15;24.45;;;;;;;3.17;100.00;98243.09;5082703;28;20035;-87
2021/10/30 02:12:27;;;;;;;53.80;26.58;;;;;;;2.99;100.00;98232.91;5083222;28;20110;-90
2021/10/30 02:14:53;;;;;;;56.40;26.27;;;;;;;3.03;100.00;98240.75;5082870;28;20031;-90
2021/10/30 02:17:19;;;;;;;52.15;26.42;;;;;;;3.05;100.00;98235.41;5082579;28;20095;-91
2021/10/30 02:19:44;;;;;;;51.80;26.15;;;;;;;3.07;100.00;98231.00;5085074;28;20160;-91
2021/10/30 02:22:10;;;;;;;45.50;24.33;;;;;;;3.14;100.00;98238.72;5086223;28;20611;-90
2021/10/30 02:24:35;;;;;;;53.55;25.67;;;;;;;2.92;100.00;98239.25;5083053;28;20027;-90
2021/10/30 02:27:01;;;;;;;50.58;24.80;;;;;;;2.97;100.00;98259.38;5083069;28;20509;-90
2021/10/30 02:29:26;;;;;;;55.13;26.73;;;;;;;2.86;100.00;98250.78;5082655;28;20039;-90
2021/10/30 02:31:53;;;;;;;60.20;25.15;;;;;;;2.83;100.00;98250.00;5082889;28;20577;-89
2021/10/30 02:34:18;;;;;;;55.17;26.27;;;;;;;2.78;100.00;98244.78;5083188;28;20384;-89
2021/10/30 02:36:44;;;;;;;51.47;25.25;;;;;;;2.67;100.00;98229.19;5083002;28;20035;-89
2021/10/30 02:39:11;;;;;;;59.45;25.58;;;;;;;2.74;100.00;98258.94;5083610;28;20027;-89
2021/10/30 02:41:37;;;;;;;57.75;29.15;;;;;;;2.61;100.00;98253.06;5082769;28;20028;-88
2021/10/30 02:44:03;;;;;;;58.55;28.27;;;;;;;2.68;100.00;98272.28;5081682;28;20054;-88
2021/10/30 02:46:29;;;;;;;47.65;25.52;;;;;;;2.68;100.00;98267.88;5082146;28;20035;-88
2021/10/30 02:48:55;;;;;;;51.63;25.38;;;;;;;2.69;100.00;98274.03;5081677;28;20035;-89
2021/10/30 02:51:21;;;;;;;51.40;26.15;;;;;;;2.61;100.00;98265.38;5082146;28;20550;-89
2021/10/30 02:53:46;;;;;;;61.25;26.35;;;;;;;2.62;100.00;98270.63;5081363;28;20039;-89
2021/10/30 02:56:12;;;;;;;51.17;26.17;;;;;;;2.61;100.00;98282.09;5081119;28;20032;-89
2021/10/30 02:58:37;;;;;;;49.63;26.08;;;;;;;2.53;100.00;98273.44;5081803;28;20062;-89
2021/10/30 03:01:03;;;;;;;63.03;27.13;;;;;;;2.53;100.00;98275.19;5081919;28;20064;-89
2021/10/30 03:03:29;;;;;;;52.30;25.30;;;;;;;2.46;100.00;98257.75;5081578;28;20027;-89
2021/10/30 03:05:54;;;;;;;56.53;27.08;;;;;;;2.47;100.00;98270.03;5081191;28;20023;-89
2021/10/30 03:08:20;;;;;;;52.35;26.25;;;;;;;2.37;100.00;98279.88;5081509;28;20065;-89
2021/10/30 03:10:46;;;;;;;58.78;28.33;;;;;;;2.18;100.00;98262.66;5081626;28;20084;-89
2021/10/30 03:13:11;;;;;;;60.72;27.30;;;;;;;2.23;100.00;98276.63;5082235;28;20076;-89
2021/10/30 03:15:37;;;;;;;71.43;31.08;;;;;;;2.08;100.00;98267.22;5099131;28;20110;-89
2021/10/30 03:18:02;;;;;;;84.63;35.80;;;;;;;2.11;100.00;98277.72;5083612;28;20089;-91
2021/10/30 03:20:28;;;;;;;62.42;28.48;;;;;;;2.11;100.00;98264.53;5085462;28;20402;-89
2021/10/30 03:22:54;;;;;;;71.25;32.97;;;;;;;2.20;100.00;98271.41;5080832;28;20034;-90
2021/10/30 03:25:20;;;;;;;55.75;26.83;;;;;;;2.26;100.00;98281.84;5081864;28;20402;-90
2021/10/30 03:27:45;;;;;;;62.08;27.13;;;;;;;2.21;100.00;98278.44;5081025;28;20036;-90
2021/10/30 03:30:12;;;;;;;47.67;24.65;;;;;;;2.24;100.00;98288.94;5080313;28;20130;-90
2021/10/30 03:32:37;;;;;;;50.20;24.63;;;;;;;2.17;100.00;98292.56;5081390;28;20153;-90
2021/10/30 03:35:03;;;;;;;53.08;26.17;;;;;;;2.25;100.00;98290.66;5080806;28;20429;-90
2021/10/30 03:37:32;;;;;;;58.08;26.45;;;;;;;2.22;100.00;98296.00;5098916;28;20051;-90
2021/10/30 03:39:58;;;;;;;54.72;27.00;;;;;;;2.18;100.00;98281.13;5098296;28;20030;-90
2021/10/30 03:42:23;;;;;;;50.42;23.90;;;;;;;2.10;100.00;98280.38;5081429;28;20478;-90
2021/10/30 03:44:50;;;;;;;43.80;22.38;;;;;;;2.05;100.00;98279.59;5080605;28;20117;-90
2021/10/30 03:47:15;;;;;;;46.97;23.30;;;;;;;2.10;100.00;98290.91;5079395;28;20078;-90
2021/10/30 03:49:41;;;;;;;58.55;25.13;;;;;;;2.02;100.00;98290.19;5080495;28;20482;-90
2021/10/30 03:52:07;;;;;;;53.78;25.60;;;;;;;2.08;100.00;98298.00;5098396;28;20032;-90
2021/10/30 03:54:32;;;;;;;53.50;22.77;;;;;;;2.00;100.00;98286.72;5080432;28;20584;-88
2021/10/30 03:56:58;;;;;;;50.55;23.02;;;;;;;1.96;100.00;98287.66;5079438;28;20073;-88
2021/10/30 03:59:24;;;;;;;48.70;23.10;;;;;;;1.86;100.00;98267.59;5079423;28;20387;-88
2021/10/30 04:01:49;;;;;;;45.45;22.05;;;;;;;1.99;100.00;98285.84;5079597;28;20111;-89
2021/10/30 04:04:15;;;;;;;136.35;87.10;;;;;;;2.02;100.00;98292.81;5079771;28;20031;-88
2021/10/30 04:06:41;;;;;;;42.65;22.20;;;;;;;1.96;100.00;98277.97;5096911;28;20024;-90
2021/10/30 04:09:06;;;;;;;53.95;26.33;;;;;;;1.96;100.00;98285.00;5098032;28;20049;-91
2021/10/30 04:11:32;;;;;;;49.50;24.80;;;;;;;1.96;100.00;98287.66;5082971;28;20062;-89
2021/10/30 04:13:57;;;;;;;71.45;27.15;;;;;;;1.89;100.00;98281.59;5079615;28;20032;-87
2021/10/30 04:16:23;;;;;;;58.85;29.05;;;;;;;1.88;100.00;98294.78;5080572;28;20080;-89
2021/10/30 04:18:48;;;;;;;72.22;33.38;;;;;;;1.79;100.00;98281.75;5082278;28;20493;-90
2021/10/30 04:21:14;;;;;;;54.05;26.50;;;;;;;1.72;100.00;98264.31;5082486;28;20024;-89
2021/10/30 04:23:40;;;;;;;57.45;26.52;;;;;;;1.72;100.00;98269.56;5081372;28;20530;-89
2021/10/30 04:26:07;;;;;;;50.15;27.50;;;;;;;1.61;100.00;98254.78;5080096;28;20410;-88
2021/10/30 04:28:33;;;;;;;63.40;31.40;;;;;;;1.77;100.00;98276.53;5096487;28;20027;-89
2021/10/30 04:31:03;;;;;;;53.15;27.23;;;;;;;1.82;100.00;98298.41;5080002;28;20073;-89
2021/10/30 04:33:28;;;;;;;61.08;27.15;;;;;;;1.82;100.00;98287.84;5080104;28;20048;-88
2021/10/30 04:35:54;;;;;;;58.88;24.95;;;;;;;1.75;100.00;98294.13;5079110;28;20147;-88
2021/10/30 04:38:20;;;;;;;46.92;22.95;;;;;;;1.69;100.00;98283.69;5079187;28;20027;-89
2021/10/30 04:40:45;;;;;;;53.83;24.10;;;;;;;1.63;100.00;98291.69;5079715;28;20023;-88
2021/10/30 04:43:11;;;;;;;59.97;25.50;;;;;;;1.46;100.00;98281.38;5079861;28;20027;-88
2021/10/30 04:45:40;;;;;;;41.83;20.85;;;;;;;1.48;100.00;98294.50;5080301;28;20031;-88
2021/10/30 04:48:06;;;;;;;47.40;22.65;;;;;;;1.38;100.00;98293.81;5079635;28;20016;-90
2021/10/30 04:50:32;;;;;;;55.40;24.95;;;;;;;1.29;100.00;98288.66;5081286;28;20023;-90
2021/10/30 04:52:58;;;;;;;56.38;26.15;;;;;;;1.30;100.00;98293.00;5080516;28;20024;-89
2021/10/30 04:55:23;;;;;;;44.80;22.90;;;;;;;1.28;100.00;98301.84;5081264;28;20478;-90
2021/10/30 04:57:49;;;;;;;49.83;23.98;;;;;;;1.24;100.00;98295.72;5080963;28;20022;-90
2021/10/30 05:00:15;;;;;;;69.78;28.40;;;;;;;1.24;100.00;98301.00;5080978;28;20054;-89
2021/10/30 05:02:40;;;;;;;97.05;37.92;;;;;;;1.27;100.00;98306.22;5085432;28;20035;-89
2021/10/30 05:05:06;;;;;;;78.82;34.35;;;;;;;1.13;100.00;98295.00;5085140;28;20088;-89
2021/10/30 05:07:32;;;;;;;73.55;34.20;;;;;;;1.22;100.00;98297.53;5085031;28;20063;-88
2021/10/30 05:09:58;;;;;;;75.15;32.30;;;;;;;1.33;100.00;98311.41;5084313;28;20030;-88
2021/10/30 05:12:23;;;;;;;55.17;27.77;;;;;;;1.31;100.00;98301.78;5101657;28;20027;-90
2021/10/30 05:14:49;;;;;;;54.53;25.02;;;;;;;1.25;100.00;98288.72;5086110;28;20015;-89
2021/10/30 05:17:15;;;;;;;49.83;25.55;;;;;;;1.23;100.00;98299.25;5083015;28;20024;-87
2021/10/30 05:19:41;;;;;;;59.95;30.02;;;;;;;1.36;100.00;98307.88;5100631;28;20065;-87
2021/10/30 05:22:06;;;;;;;61.78;28.80;;;;;;;1.35;100.00;98314.06;5083797;28;20039;-90
2021/10/30 05:24:32;;;;;;;69.25;37.70;;;;;;;1.33;100.00;98284.19;5083930;28;20176;-88
2021/10/30 05:26:57;;;;;;;65.28;27.88;;;;;;;1.44;100.00;98288.44;5084114;28;20482;-89
2021/10/30 05:29:23;;;;;;;61.10;28.13;;;;;;;1.58;100.00;98306.69;5083412;28;20176;-88
2021/10/30 05:31:49;;;;;;;69.63;29.70;;;;;;;1.64;100.00;98310.09;5084559;28;20081;-88
2021/10/30 05:34:14;;;;;;;71.47;32.95;;;;;;;1.66;100.00;98301.31;5083205;28;20463;-89
2021/10/30 05:36:40;;;;;;;58.65;29.40;;;;;;;1.84;100.00;98319.50;5082550;28;20028;-90
2021/10/30 05:39:11;;;;;;;54.63;25.83;;;;;;;2.04;100.00;98323.56;5083400;28;20058;-87
2021/10/30 05:41:37;;;;;;;54.25;26.98;;;;;;;2.19;100.00;98318.03;5083540;28;20059;-89
2021/10/30 05:44:03;;;;;;;56.78;28.23;;;;;;;2.29;100.00;98313.47;5083160;28;20066;-90
2021/10/30 05:46:29;;;;;;;51.65;27.38;;;;;;;2.51;100.00;98308.69;5083207;28;20035;-89
2021/10/30 05:48:55;;;;;;;71.20;33.65;;;;;;;2.78;100.00;98310.81;5083409;28;20027;-89
2021/10/30 05:51:20;;;;;;;114.82;47.95;;;;;;;3.07;100.00;98313.78;5082279;28;20027;-88
2021/10/30 05:53:46;;;;;;;94.50;47.88;;;;;;;3.46;100.00;98305.91;5082755;28;20027;-88
2021/10/30 05:56:12;;;;;;;79.28;40.03;;;;;;;3.63;100.00;98306.44;5086038;28;20035;-88
2021/10/30 05:58:38;;;;;;;78.60;40.13;;;;;;;3.88;100.00;98304.09;5086046;28;20027;-75
2021/10/30 06:01:03;;;;;;;107.53;55.22;;;;;;;4.31;100.00;98323.31;5092881;28;20036;-76
2021/10/30 06:03:29;;;;;;;83.47;43.58;;;;;;;4.76;95.90;98316.84;5093097;28;20027;-74
2021/10/30 06:05:55;;;;;;;87.25;44.83;;;;;;;4.86;94.43;98313.03;5093021;28;20023;-82
2021/10/30 06:08:20;;;;;;;60.90;33.78;;;;;;;5.58;90.25;98313.63;5077235;28;20436;-84
2021/10/30 06:10:46;;;;;;;65.25;31.38;;;;;;;6.10;86.28;98318.25;5076873;28;20031;-73
2021/10/30 06:13:11;;;;;;;81.97;39.38;;;;;;;5.86;86.44;98315.44;5090662;28;20055;-73
2021/10/30 06:15:37;;;;;;;91.78;44.40;;;;;;;6.06;86.19;98319.28;5090616;28;20040;-73
2021/10/30 06:18:03;;;;;;;83.45;38.85;;;;;;;6.50;83.06;98316.03;5076194;28;20031;-77
2021/10/30 06:20:28;;;;;;;81.00;37.47;;;;;;;6.62;82.41;98326.25;5075381;27;20028;-72
2021/10/30 06:22:54;;;;;;;68.32;31.77;;;;;;;6.64;81.42;98319.09;5092503;28;20038;-74
2021/10/30 06:25:19;;;;;;;59.50;28.70;;;;;;;6.77;80.60;98323.06;5095302;27;20080;-78
2021/10/30 06:27:45;;;;;;;56.85;25.92;;;;;;;7.31;77.87;98325.56;5097556;28;20091;-88
2021/10/30 06:30:12;;;;;;;46.72;23.67;;;;;;;8.08;74.00;98333.25;5084390;28;20019;-81
2021/10/30 06:32:37;;;;;;;46.97;24.00;;;;;;;8.13;73.23;98325.94;5080667;28;20483;-82
2021/10/30 06:35:06;;;;;;;48.97;24.25;;;;;;;8.23;71.32;98333.56;5079744;28;20024;-72
2021/10/30 06:37:31;;;;;;;49.38;24.30;;;;;;;8.28;71.86;98331.63;5096815;28;20035;-86
2021/10/30 06:39:57;;;;;;;55.03;24.40;;;;;;;9.02;68.80;98340.03;5081202;28;20780;-86
2021/10/30 06:42:23;;;;;;;62.78;31.75;;;;;;;9.52;66.34;98316.44;5088236;28;20414;-84
2021/10/30 06:44:50;;;;;;;73.72;39.22;;;;;;;10.59;62.30;98318.44;5096235;28;20043;-86
2021/10/30 06:47:16;;;;;;;84.38;42.10;;;;;;;11.20;59.69;98323.34;5072510;28;20462;-85
2021/10/30 06:49:42;;;;;;;85.70;45.08;;;;;;;11.87;57.15;98318.84;5080650;28;20028;-83
2021/10/30 06:52:09;;;;;;;82.95;43.80;;;;;;;12.59;54.28;98310.28;5094712;28;20035;-85
2021/10/30 06:54:35;;;;;;;86.43;47.45;;;;;;;12.93;53.27;98328.84;5079660;28;20066;-87
2021/10/30 06:57:00;;;;;;;83.70;39.30;;;;;;;13.31;51.75;98313.19;5079946;28;20144;-88
2021/10/30 06:59:28;;;;;;;74.88;42.88;;;;;;;13.67;50.27;98320.81;5080681;28;20191;-87
2021/10/30 07:01:53;;;;;;;95.85;52.75;;;;;;;13.52;50.75;98317.25;5063682;28;20035;-83
2021/10/30 07:04:19;;;;;;;131.90;70.47;;;;;;;14.31;48.63;98316.72;5078267;28;20034;-75
2021/10/30 07:06:46;;;;;;;127.20;67.82;;;;;;;14.80;47.53;98301.78;5092067;28;20030;-78
2021/10/30 07:09:12;;;;;;;160.75;88.30;;;;;;;15.08;46.61;98304.34;5077312;28;20024;-81
2021/10/30 07:11:37;;;;;;;137.02;81.65;;;;;;;14.76;47.25;98323.66;5077333;28;20042;-81
2021/10/30 07:14:03;;;;;;;122.95;70.07;;;;;;;15.14;46.53;98317.41;5076941;28;20057;-80
2021/10/30 07:16:29;;;;;;;113.68;62.65;;;;;;;15.29;46.13;98312.81;5077253;28;20513;-82
2021/10/30 07:18:55;;;;;;;99.43;57.83;;;;;;;14.98;47.04;98321.28;5077389;28;20110;-80
2021/10/30 07:21:20;;;;;;;98.28;53.60;;;;;;;14.97;47.06;98311.44;5076903;28;20122;-81
2021/10/30 07:23:46;;;;;;;98.45;55.67;;;;;;;15.80;45.41;98310.19;5077393;28;20092;-87
2021/10/30 07:26:15;;;;;;;93.97;56.10;;;;;;;15.66;45.52;98311.16;5078916;28;20031;-88
2021/10/30 07:28:41;;;;;;;99.50;55.92;;;;;;;15.75;46.18;98306.97;5082287;28;20088;-91
2021/10/30 07:31:07;;;;;;;112.60;65.88;;;;;;;16.05;44.46;98310.16;5083696;28;20023;-90
2021/10/30 07:33:33;;;;;;;106.53;58.47;;;;;;;16.15;44.92;98298.59;5080085;28;20119;-86
2021/10/30 07:35:58;;;;;;;111.35;61.83;;;;;;;15.95;45.33;98282.09;5082111;28;20054;-89
2021/10/30 07:38:24;;;;;;;112.72;61.75;;;;;;;16.04;45.44;98303.03;5081646;28;20023;-90
2021/10/30 07:40:57;;;;;;;122.82;65.32;;;;;;;15.62;45.82;98291.66;5083324;28;20028;-89
2021/10/30 07:43:23;;;;;;;113.40;64.70;;;;;;;16.22;44.70;98289.06;5119383;28;20023;-93
2021/10/30 07:45:48;;;;;;;118.03;66.72;;;;;;;16.59;44.49;98303.47;5082556;28;20815;-92
2021/10/30 07:48:14;;;;;;;104.55;61.13;;;;;;;16.82;43.84;98287.38;5084628;28;20027;-90
2021/10/30 07:50:58;;;;;;;102.88;61.28;;;;;;;17.21;43.20;98290.63;5084379;28;20107;-91
2021/10/30 07:53:24;;;;;;;103.72;60.85;;;;;;;17.55;42.09;98266.38;5086142;28;20425;-92
2021/10/30 07:55:49;;;;;;;93.32;57.20;;;;;;;17.49;41.96;98256.88;5081817;28;20019;-92
2021/10/30 07:58:15;;;;;;;103.47;59.67;;;;;;;17.49;42.09;98229.84;5083687;28;20401;-92
2021/10/30 08:00:58;;;;;;;95.63;56.08;;;;;;;17.97;41.38;98224.19;5081181;28;20035;-88
2021/10/30 08:03:24;;;;;;;88.57;51.70;;;;;;;18.16;41.19;98224.44;5082659;28;20039;-89
2021/10/30 08:05:50;;;;;;;144.98;78.30;;;;;;;17.91;42.21;98266.16;5080372;28;20023;-90
2021/10/30 08:08:15;;;;;;;92.38;50.42;;;;;;;18.22;42.12;98261.84;5078321;28;20489;-88
2021/10/30 08:10:41;;;;;;;89.53;53.78;;;;;;;18.33;42.02;98276.22;5077729;28;20031;-89
2021/10/30 08:13:11;;;;;;;88.50;53.00;;;;;;;18.62;41.51;98282.00;5077676;28;20019;-86
2021/10/30 08:15:37;;;;;;;103.40;52.40;;;;;;;19.15;40.51;98274.81;5077047;28;20019;-87
2021/10/30 08:18:03;;;;;;;82.10;49.17;;;;;;;19.46;40.17;98264.94;5076759;28;20183;-89
2021/10/30 08:20:30;;;;;;;88.00;47.60;;;;;;;20.27;38.36;98258.69;5087118;28;21183;-91
2021/10/30 08:22:56;;;;;;;89.88;50.75;;;;;;;19.00;40.05;98249.00;5080676;28;20043;-90
2021/10/30 08:25:21;;;;;;;79.60;48.55;;;;;;;19.50;39.68;98273.69;5081589;28;20028;-87
2021/10/30 08:27:47;;;;;;;79.45;48.42;;;;;;;19.91;39.36;98238.31;5076509;28;20047;-78
2021/10/30 08:30:12;;;;;;;73.85;44.97;;;;;;;19.41;40.03;98259.06;5075074;28;20401;-73
2021/10/30 08:32:38;;;;;;;73.57;48.38;;;;;;;19.80;39.73;98262.84;5091586;28;20470;-74
2021/10/30 08:35:04;;;;;;;69.72;44.90;;;;;;;20.33;38.69;98258.94;5109706;28;20028;-82
2021/10/30 08:37:30;;;;;;;70.05;45.42;;;;;;;20.47;38.76;98257.72;5075985;28;20031;-75
2021/10/30 08:39:55;;;;;;;60.05;36.47;;;;;;;20.31;39.13;98265.53;5090615;28;20054;-75
2021/10/30 08:42:22;;;;;;;62.30;35.30;;;;;;;20.35;38.89;98262.41;5091030;28;20027;-75
2021/10/30 08:44:51;;;;;;;69.60;41.20;;;;;;;20.70;38.12;98261.06;5108434;28;20054;-72
2021/10/30 08:47:19;;;;;;;56.85;32.92;;;;;;;21.27;37.63;98254.81;5090618;28;20079;-72
2021/10/30 08:49:45;;;;;;;61.50;37.97;;;;;;;21.44;37.42;98246.78;5090827;28;20019;-72
2021/10/30 08:52:10;;;;;;;55.17;34.33;;;;;;;21.49;36.93;98249.94;5094652;28;20118;-79
2021/10/30 08:54:37;;;;;;;52.75;32.85;;;;;;;21.74;36.61;98240.28;5074704;28;20061;-76
2021/10/30 08:57:03;;;;;;;47.00;31.95;;;;;;;21.44;37.04;98240.50;5075594;28;20501;-78
2021/10/30 08:59:40;;;;;;;52.22;33.75;;;;;;;21.69;36.70;98231.69;5091225;28;20035;-78
2021/10/30 09:02:08;;;;;;;50.03;30.30;;;;;;;21.63;36.43;98227.69;5073482;28;20023;-73
2021/10/30 09:04:34;;;;;;;43.75;30.20;;;;;;;22.48;35.63;98230.25;5091009;28;20061;-74
2021/10/30 09:07:02;;;;;;;43.80;30.42;;;;;;;22.16;35.94;98221.66;5089996;28;20028;-75
2021/10/30 09:09:29;;;;;;;57.55;32.15;;;;;;;23.00;34.88;98216.84;5090375;28;20084;-75
2021/10/30 09:11:57;;;;;;;68.15;37.03;;;;;;;23.37;34.33;98219.38;5072835;28;20035;-73
2021/10/30 09:14:25;;;;;;;39.33;24.85;;;;;;;22.50;35.64;98216.44;5090229;28;20027;-74
2021/10/30 09:17:10;;;;;;;48.20;33.53;;;;;;;23.38;34.73;98216.47;5090306;28;20115;-76
2021/10/30 09:19:48;;;;;;;39.55;26.75;;;;;;;23.66;33.67;98209.03;5090045;28;20490;-74
2021/10/30 09:22:15;;;;;;;28.05;17.88;;;;;;;23.77;33.54;98214.25;5089915;28;20036;-74
2021/10/30 09:25:00;;;;;;;27.88;19.23;;;;;;;24.89;31.69;98199.34;5107970;28;20705;-74
2021/10/30 09:28:02;;;;;;;33.95;20.20;;;;;;;24.87;31.81;98187.72;5090227;28;20043;-75
2021/10/30 09:30:32;;;;;;;34.05;21.20;;;;;;;25.41;30.79;98186.19;4989245;28;20026;-73
2021/10/30 09:33:06;;;;;;;51.35;33.08;;;;;;;25.28;31.20;98173.06;5071615;28;20092;-72
2021/10/30 09:35:33;;;;;;;26.50;18.70;;;;;;;25.27;30.43;98174.06;5089820;28;20125;-76
2021/10/30 09:38:00;;;;;;;28.80;20.42;;;;;;;24.58;31.55;98168.16;5107346;28;20446;-72
2021/10/30 09:40:28;;;;;;;32.80;22.45;;;;;;;24.96;31.00;98172.16;5088476;28;20042;-77
2021/10/30 09:43:14;;;;;;;28.65;19.25;;;;;;;24.24;31.63;98166.31;5072860;28;20035;-78
2021/10/30 09:45:48;;;;;;;23.92;16.38;;;;;;;23.55;32.83;98169.19;5072317;28;20075;-73
2021/10/30 09:48:23;;;;;;;23.98;14.55;;;;;;;23.91;32.30;98169.03;5091589;28;20623;-75
2021/10/30 09:50:55;;;;;;;28.65;15.52;;;;;;;24.51;31.45;98153.41;5095537;28;20028;-77
2021/10/30 09:53:31;;;;;;;21.05;14.10;;;;;;;24.65;31.40;98144.53;5076833;28;20054;-78
2021/10/30 09:56:07;;;;;;;23.33;14.30;;;;;;;25.38;30.17;98139.97;5076684;28;20088;-73
2021/10/30 09:58:37;;;;;;;22.35;14.55;;;;;;;25.63;30.15;98138.06;5076207;28;20122;-74
2021/10/30 10:01:10;;;;;;;29.58;17.60;;;;;;;24.58;31.07;98138.06;5091869;28;20041;-74
2021/10/30 10:03:37;;;;;;;22.73;15.13;;;;;;;24.91;31.07;98128.88;5087997;28;20035;-73
2021/10/30 10:06:05;;;;;;;22.00;15.82;;;;;;;25.80;29.99;98134.28;5093520;28;20114;-78
2021/10/30 10:08:33;;;;;;;39.45;24.98;;;;;;;26.54;28.89;98121.97;5075989;28;20031;-74
2021/10/30 10:10:59;;;;;;;24.17;16.77;;;;;;;26.28;28.64;98123.13;5111489;28;20051;-74
2021/10/30 10:13:24;;;;;;;56.95;37.22;;;;;;;25.91;29.56;98117.44;5092860;28;20108;-74
2021/10/30 10:15:52;;;;;;;23.70;15.68;;;;;;;25.93;29.07;98112.66;5109890;28;20129;-74
2021/10/30 10:18:19;;;;;;;39.10;21.17;;;;;;;27.02;28.03;98109.78;5095579;28;20034;-74
2021/10/30 10:20:46;;;;;;;26.48;16.92;;;;;;;27.08;27.89;98107.16;5093776;28;20027;-73
2021/10/30 10:23:18;;;;;;;25.88;12.77;;;;;;;27.45;26.86;98093.44;5077034;28;20104;-74
2021/10/30 10:25:51;;;;;;;;;;;;;;;27.35;26.83;98095.56;5096447;28;20019;-73
2021/10/30 10:28:18;;;;;;;25.63;11.23;;;;;;;27.89;26.39;98085.22;5095891;28;19911;-74
2021/10/30 10:30:55;;;;;;;16.30;11.30;;;;;;;26.65;27.59;98094.06;5107023;28;20083;-74
2021/10/30 10:33:20;;;;;;;14.77;10.25;;;;;;;27.09;27.10;98089.66;5095108;28;20043;-74
2021/10/30 10:36:11;;;;;;;17.58;11.13;;;;;;;26.62;27.70;98083.47;5095459;28;20027;-73
2021/10/30 10:38:58;;;;;;;15.00;10.68;;;;;;;28.12;26.03;98076.03;5113419;28;20032;-74
2021/10/30 10:41:46;;;;;;;19.80;11.70;;;;;;;28.17;25.99;98066.13;5113019;28;20043;-74
2021/10/30 10:44:27;;;;;;;16.92;11.82;;;;;;;28.20;26.22;98063.00;5113274;28;20075;-74
2021/10/30 10:47:00;;;;;;;21.33;13.43;;;;;;;28.61;25.78;98056.91;5113596;28;20499;-74
2021/10/30 10:49:36;;;;;;;17.23;9.63;;;;;;;27.73;25.96;98060.66;5094582;28;20144;-74
2021/10/30 10:52:07;;;;;;;15.00;10.68;;;;;;;27.56;26.54;98055.53;5113545;28;20031;-74
2021/10/30 10:55:04;;;;;;;16.15;10.15;;;;;;;27.03;26.95;98057.44;5094412;28;20031;-74
2021/10/30 10:57:47;;;;;;;13.13;9.18;;;;;;;27.74;26.35;98061.50;5094307;28;20464;-74
2021/10/30 11:00:20;;;;;;;22.05;10.95;;;;;;;27.95;26.23;98051.44;5093990;28;20023;-75
2021/10/30 11:02:48;;;;;;;18.42;9.27;;;;;;;28.18;26.23;98044.97;5094934;28;20035;-75
2021/10/30 11:05:15;;;;;;;13.90;10.00;;;;;;;27.49;26.78;98046.34;5113018;28;20492;-75
2021/10/30 11:07:43;;;;;;;23.67;13.35;;;;;;;27.18;27.21;98044.56;5094586;28;20035;-74
2021/10/30 11:10:30;;;;;;;13.55;9.45;;;;;;;27.27;26.68;98037.94;5094607;28;20024;-74
2021/10/30 11:13:02;;;;;;;14.38;9.90;;;;;;;26.72;27.04;98037.41;5094475;28;20076;-74
2021/10/30 11:15:39;;;;;;;20.13;9.47;;;;;;;26.99;26.87;98027.75;5094380;28;20156;-74
2021/10/30 11:18:14;;;;;;;14.32;10.60;;;;;;;27.49;26.38;98036.19;5112646;28;20269;-74